sensor_id;sensor_type;location;lat;lon;timestamp;temperature;humidity
76099;DHT22;64828;49.956;8.636;2024-02-28T00:00:15;2.80;90.30
76099;DHT22;64828;49.956;8.636;2024-02-28T00:00:31;2.80;90.30
76099;DHT22;64828;49.956;8.636;2024-02-28T00:00:47;2.80;90.20
76099;DHT22;64828;49.956;8.636;2024-02-28T00:01:02;2.80;90.10
76099;DHT22;64828;49.956;8.636;2024-02-28T00:01:18;2.70;90.00
76099;DHT22;64828;49.956;8.636;2024-02-28T00:01:34;2.70;89.90
76099;DHT22;64828;49.956;8.636;2024-02-28T00:01:53;2.70;89.90
76099;DHT22;64828;49.956;8.636;2024-02-28T00:02:09;2.70;90.00
76099;DHT22;64828;49.956;8.636;2024-02-28T00:02:24;2.70;89.90
76099;DHT22;64828;49.956;8.636;2024-02-28T00:02:40;2.70;89.80
76099;DHT22;64828;49.956;8.636;2024-02-28T00:02:55;2.70;89.90
76099;DHT22;64828;49.956;8.636;2024-02-28T00:03:11;2.70;90.10
76099;DHT22;64828;49.956;8.636;2024-02-28T00:03:27;2.70;90.40
76099;DHT22;64828;49.956;8.636;2024-02-28T00:03:42;2.70;90.50
76099;DHT22;64828;49.956;8.636;2024-02-28T00:03:58;2.80;90.60
76099;DHT22;64828;49.956;8.636;2024-02-28T00:04:13;2.70;90.60
76099;DHT22;64828;49.956;8.636;2024-02-28T00:04:29;2.70;90.50
76099;DHT22;64828;49.956;8.636;2024-02-28T00:04:45;2.70;90.50
76099;DHT22;64828;49.956;8.636;2024-02-28T00:05:00;2.70;90.50
76099;DHT22;64828;49.956;8.636;2024-02-28T00:05:16;2.70;90.40
76099;DHT22;64828;49.956;8.636;2024-02-28T00:05:32;2.70;90.40
76099;DHT22;64828;49.956;8.636;2024-02-28T00:05:47;2.70;90.40
76099;DHT22;64828;49.956;8.636;2024-02-28T00:06:03;2.70;90.40
76099;DHT22;64828;49.956;8.636;2024-02-28T00:06:19;2.70;90.30
76099;DHT22;64828;49.956;8.636;2024-02-28T00:06:35;2.70;90.40
76099;DHT22;64828;49.956;8.636;2024-02-28T00:06:50;2.70;90.50
76099;DHT22;64828;49.956;8.636;2024-02-28T00:07:06;2.70;90.60
76099;DHT22;64828;49.956;8.636;2024-02-28T00:07:22;2.70;90.50
76099;DHT22;64828;49.956;8.636;2024-02-28T00:07:37;2.70;90.40
76099;DHT22;64828;49.956;8.636;2024-02-28T00:07:53;2.70;90.20
76099;DHT22;64828;49.956;8.636;2024-02-28T00:08:09;2.60;90.10
76099;DHT22;64828;49.956;8.636;2024-02-28T00:08:24;2.70;90.20
76099;DHT22;64828;49.956;8.636;2024-02-28T00:08:40;2.70;90.40
76099;DHT22;64828;49.956;8.636;2024-02-28T00:08:56;2.70;90.40
76099;DHT22;64828;49.956;8.636;2024-02-28T00:09:12;2.70;90.30
76099;DHT22;64828;49.956;8.636;2024-02-28T00:09:29;2.70;90.30
76099;DHT22;64828;49.956;8.636;2024-02-28T00:09:44;2.70;90.40
76099;DHT22;64828;49.956;8.636;2024-02-28T00:10:00;2.70;90.50
76099;DHT22;64828;49.956;8.636;2024-02-28T00:10:16;2.80;90.50
76099;DHT22;64828;49.956;8.636;2024-02-28T00:10:32;2.80;90.40
76099;DHT22;64828;49.956;8.636;2024-02-28T00:10:48;2.80;90.40
76099;DHT22;64828;49.956;8.636;2024-02-28T00:11:04;2.80;90.40
76099;DHT22;64828;49.956;8.636;2024-02-28T00:11:20;2.80;90.30
76099;DHT22;64828;49.956;8.636;2024-02-28T00:11:40;2.80;90.20
76099;DHT22;64828;49.956;8.636;2024-02-28T00:11:57;2.80;90.10
76099;DHT22;64828;49.956;8.636;2024-02-28T00:12:13;2.80;90.00
76099;DHT22;64828;49.956;8.636;2024-02-28T00:12:30;2.80;89.90
76099;DHT22;64828;49.956;8.636;2024-02-28T00:12:46;2.80;89.90
76099;DHT22;64828;49.956;8.636;2024-02-28T00:13:01;2.80;89.90
76099;DHT22;64828;49.956;8.636;2024-02-28T00:13:17;2.80;89.80
76099;DHT22;64828;49.956;8.636;2024-02-28T00:13:33;2.70;89.70
76099;DHT22;64828;49.956;8.636;2024-02-28T00:13:48;2.70;89.50
76099;DHT22;64828;49.956;8.636;2024-02-28T00:14:04;2.80;89.70
76099;DHT22;64828;49.956;8.636;2024-02-28T00:14:19;2.80;90.00
76099;DHT22;64828;49.956;8.636;2024-02-28T00:14:35;2.80;90.10
76099;DHT22;64828;49.956;8.636;2024-02-28T00:14:51;2.80;90.10
76099;DHT22;64828;49.956;8.636;2024-02-28T00:15:07;2.80;90.00
76099;DHT22;64828;49.956;8.636;2024-02-28T00:15:26;2.70;89.90
76099;DHT22;64828;49.956;8.636;2024-02-28T00:15:41;2.70;89.80
76099;DHT22;64828;49.956;8.636;2024-02-28T00:15:58;2.70;89.90
76099;DHT22;64828;49.956;8.636;2024-02-28T00:16:14;2.80;90.00
76099;DHT22;64828;49.956;8.636;2024-02-28T00:16:29;2.80;90.10
76099;DHT22;64828;49.956;8.636;2024-02-28T00:16:45;2.70;90.10
76099;DHT22;64828;49.956;8.636;2024-02-28T00:17:02;2.80;90.10
76099;DHT22;64828;49.956;8.636;2024-02-28T00:17:18;2.80;90.10
76099;DHT22;64828;49.956;8.636;2024-02-28T00:17:33;2.70;90.00
76099;DHT22;64828;49.956;8.636;2024-02-28T00:17:52;2.70;89.90
76099;DHT22;64828;49.956;8.636;2024-02-28T00:18:08;2.80;90.00
76099;DHT22;64828;49.956;8.636;2024-02-28T00:18:25;2.80;90.10
76099;DHT22;64828;49.956;8.636;2024-02-28T00:18:41;2.80;90.10
76099;DHT22;64828;49.956;8.636;2024-02-28T00:18:56;2.80;90.10
76099;DHT22;64828;49.956;8.636;2024-02-28T00:19:12;2.80;90.20
76099;DHT22;64828;49.956;8.636;2024-02-28T00:19:28;2.80;90.10
76099;DHT22;64828;49.956;8.636;2024-02-28T00:19:43;2.80;90.10
76099;DHT22;64828;49.956;8.636;2024-02-28T00:19:59;2.80;90.00
76099;DHT22;64828;49.956;8.636;2024-02-28T00:20:15;2.80;90.00
76099;DHT22;64828;49.956;8.636;2024-02-28T00:20:30;2.80;90.00
76099;DHT22;64828;49.956;8.636;2024-02-28T00:20:46;2.80;90.00
76099;DHT22;64828;49.956;8.636;2024-02-28T00:21:02;2.80;89.90
76099;DHT22;64828;49.956;8.636;2024-02-28T00:21:19;2.90;90.00
76099;DHT22;64828;49.956;8.636;2024-02-28T00:21:34;2.80;90.00
76099;DHT22;64828;49.956;8.636;2024-02-28T00:21:50;2.90;89.90
76099;DHT22;64828;49.956;8.636;2024-02-28T00:22:06;2.90;89.90
76099;DHT22;64828;49.956;8.636;2024-02-28T00:22:21;2.90;89.90
76099;DHT22;64828;49.956;8.636;2024-02-28T00:22:37;2.90;89.80
76099;DHT22;64828;49.956;8.636;2024-02-28T00:22:53;2.90;89.70
76099;DHT22;64828;49.956;8.636;2024-02-28T00:23:08;2.90;89.60
76099;DHT22;64828;49.956;8.636;2024-02-28T00:23:25;2.80;89.60
76099;DHT22;64828;49.956;8.636;2024-02-28T00:23:41;2.90;89.60
76099;DHT22;64828;49.956;8.636;2024-02-28T00:23:57;2.80;89.70
76099;DHT22;64828;49.956;8.636;2024-02-28T00:24:12;2.80;89.70
76099;DHT22;64828;49.956;8.636;2024-02-28T00:24:28;2.90;89.80
76099;DHT22;64828;49.956;8.636;2024-02-28T00:24:45;2.80;89.80
76099;DHT22;64828;49.956;8.636;2024-02-28T00:25:00;2.90;89.90
76099;DHT22;64828;49.956;8.636;2024-02-28T00:25:16;2.90;89.90
76099;DHT22;64828;49.956;8.636;2024-02-28T00:25:32;3.00;89.90
76099;DHT22;64828;49.956;8.636;2024-02-28T00:25:47;2.90;89.70
76099;DHT22;64828;49.956;8.636;2024-02-28T00:26:03;2.90;89.50
76099;DHT22;64828;49.956;8.636;2024-02-28T00:26:19;2.90;89.50
76099;DHT22;64828;49.956;8.636;2024-02-28T00:26:35;3.00;89.50
76099;DHT22;64828;49.956;8.636;2024-02-28T00:26:50;3.00;89.50
76099;DHT22;64828;49.956;8.636;2024-02-28T00:27:06;3.00;89.60
76099;DHT22;64828;49.956;8.636;2024-02-28T00:27:22;3.00;89.60
76099;DHT22;64828;49.956;8.636;2024-02-28T00:27:37;3.00;89.50
76099;DHT22;64828;49.956;8.636;2024-02-28T00:27:53;2.90;89.40
76099;DHT22;64828;49.956;8.636;2024-02-28T00:28:08;2.90;89.40
76099;DHT22;64828;49.956;8.636;2024-02-28T00:28:24;2.90;89.40
76099;DHT22;64828;49.956;8.636;2024-02-28T00:28:40;2.90;89.40
76099;DHT22;64828;49.956;8.636;2024-02-28T00:28:55;2.90;89.40
76099;DHT22;64828;49.956;8.636;2024-02-28T00:29:11;2.90;89.40
76099;DHT22;64828;49.956;8.636;2024-02-28T00:29:27;2.90;89.40
76099;DHT22;64828;49.956;8.636;2024-02-28T00:29:42;2.90;89.40
76099;DHT22;64828;49.956;8.636;2024-02-28T00:29:58;3.00;89.50
76099;DHT22;64828;49.956;8.636;2024-02-28T00:30:14;2.90;89.50
76099;DHT22;64828;49.956;8.636;2024-02-28T00:30:29;2.90;89.40
76099;DHT22;64828;49.956;8.636;2024-02-28T00:30:45;2.90;89.40
76099;DHT22;64828;49.956;8.636;2024-02-28T00:31:01;3.00;89.40
76099;DHT22;64828;49.956;8.636;2024-02-28T00:31:17;3.00;89.60
76099;DHT22;64828;49.956;8.636;2024-02-28T00:31:32;2.90;89.60
76099;DHT22;64828;49.956;8.636;2024-02-28T00:31:48;2.90;89.50
76099;DHT22;64828;49.956;8.636;2024-02-28T00:32:04;2.90;89.40
76099;DHT22;64828;49.956;8.636;2024-02-28T00:32:20;2.90;89.50
76099;DHT22;64828;49.956;8.636;2024-02-28T00:32:36;3.00;89.50
76099;DHT22;64828;49.956;8.636;2024-02-28T00:32:52;3.00;89.50
76099;DHT22;64828;49.956;8.636;2024-02-28T00:33:08;3.00;89.40
76099;DHT22;64828;49.956;8.636;2024-02-28T00:33:23;3.00;89.30
76099;DHT22;64828;49.956;8.636;2024-02-28T00:33:39;3.00;89.30
76099;DHT22;64828;49.956;8.636;2024-02-28T00:33:55;3.00;89.30
76099;DHT22;64828;49.956;8.636;2024-02-28T00:34:10;3.10;89.30
76099;DHT22;64828;49.956;8.636;2024-02-28T00:34:26;3.10;89.30
76099;DHT22;64828;49.956;8.636;2024-02-28T00:34:44;3.10;89.20
76099;DHT22;64828;49.956;8.636;2024-02-28T00:34:59;3.10;89.00
76099;DHT22;64828;49.956;8.636;2024-02-28T00:35:15;3.00;88.90
76099;DHT22;64828;49.956;8.636;2024-02-28T00:35:32;3.00;88.70
76099;DHT22;64828;49.956;8.636;2024-02-28T00:35:48;3.00;88.70
76099;DHT22;64828;49.956;8.636;2024-02-28T00:36:07;2.90;88.70
76099;DHT22;64828;49.956;8.636;2024-02-28T00:36:23;2.90;88.80
76099;DHT22;64828;49.956;8.636;2024-02-28T00:36:38;2.90;88.80
76099;DHT22;64828;49.956;8.636;2024-02-28T00:36:54;2.80;88.80
76099;DHT22;64828;49.956;8.636;2024-02-28T00:37:09;2.90;88.90
76099;DHT22;64828;49.956;8.636;2024-02-28T00:37:25;2.90;89.20
76099;DHT22;64828;49.956;8.636;2024-02-28T00:37:40;2.90;89.40
76099;DHT22;64828;49.956;8.636;2024-02-28T00:37:56;2.90;89.40
76099;DHT22;64828;49.956;8.636;2024-02-28T00:38:12;2.90;89.40
76099;DHT22;64828;49.956;8.636;2024-02-28T00:38:27;2.90;89.40
76099;DHT22;64828;49.956;8.636;2024-02-28T00:38:43;2.90;89.40
76099;DHT22;64828;49.956;8.636;2024-02-28T00:38:59;2.90;89.50
76099;DHT22;64828;49.956;8.636;2024-02-28T00:39:14;2.80;89.50
76099;DHT22;64828;49.956;8.636;2024-02-28T00:39:30;2.90;89.50
76099;DHT22;64828;49.956;8.636;2024-02-28T00:39:46;2.90;89.50
76099;DHT22;64828;49.956;8.636;2024-02-28T00:40:01;2.90;89.50
76099;DHT22;64828;49.956;8.636;2024-02-28T00:40:17;2.90;89.50
76099;DHT22;64828;49.956;8.636;2024-02-28T00:40:32;2.90;89.60
76099;DHT22;64828;49.956;8.636;2024-02-28T00:40:49;2.90;89.60
76099;DHT22;64828;49.956;8.636;2024-02-28T00:41:05;2.90;89.50
76099;DHT22;64828;49.956;8.636;2024-02-28T00:41:20;2.90;89.50
76099;DHT22;64828;49.956;8.636;2024-02-28T00:41:37;2.90;89.50
76099;DHT22;64828;49.956;8.636;2024-02-28T00:41:52;2.90;89.60
76099;DHT22;64828;49.956;8.636;2024-02-28T00:42:08;3.00;89.50
76099;DHT22;64828;49.956;8.636;2024-02-28T00:42:24;2.90;89.40
76099;DHT22;64828;49.956;8.636;2024-02-28T00:42:39;2.90;89.20
76099;DHT22;64828;49.956;8.636;2024-02-28T00:42:57;2.90;89.30
76099;DHT22;64828;49.956;8.636;2024-02-28T00:43:13;3.00;89.40
76099;DHT22;64828;49.956;8.636;2024-02-28T00:43:28;2.90;89.30
76099;DHT22;64828;49.956;8.636;2024-02-28T00:43:44;2.90;89.20
76099;DHT22;64828;49.956;8.636;2024-02-28T00:43:59;2.90;89.20
76099;DHT22;64828;49.956;8.636;2024-02-28T00:44:15;2.90;89.10
76099;DHT22;64828;49.956;8.636;2024-02-28T00:44:31;2.80;89.00
76099;DHT22;64828;49.956;8.636;2024-02-28T00:44:46;2.80;89.00
76099;DHT22;64828;49.956;8.636;2024-02-28T00:45:02;2.80;89.00
76099;DHT22;64828;49.956;8.636;2024-02-28T00:45:19;2.80;89.20
76099;DHT22;64828;49.956;8.636;2024-02-28T00:45:34;2.80;89.20
76099;DHT22;64828;49.956;8.636;2024-02-28T00:45:50;2.80;89.30
76099;DHT22;64828;49.956;8.636;2024-02-28T00:46:05;2.80;89.40
76099;DHT22;64828;49.956;8.636;2024-02-28T00:46:26;2.80;89.50
76099;DHT22;64828;49.956;8.636;2024-02-28T00:46:42;2.80;89.50
76099;DHT22;64828;49.956;8.636;2024-02-28T00:46:57;2.80;89.40
76099;DHT22;64828;49.956;8.636;2024-02-28T00:47:13;2.80;89.30
76099;DHT22;64828;49.956;8.636;2024-02-28T00:47:28;2.80;89.30
76099;DHT22;64828;49.956;8.636;2024-02-28T00:47:44;2.70;89.30
76099;DHT22;64828;49.956;8.636;2024-02-28T00:47:59;2.70;89.30
76099;DHT22;64828;49.956;8.636;2024-02-28T00:48:15;2.70;89.30
76099;DHT22;64828;49.956;8.636;2024-02-28T00:48:31;2.70;89.30
76099;DHT22;64828;49.956;8.636;2024-02-28T00:48:46;2.70;89.40
76099;DHT22;64828;49.956;8.636;2024-02-28T00:49:02;2.70;89.40
76099;DHT22;64828;49.956;8.636;2024-02-28T00:49:18;2.70;89.40
76099;DHT22;64828;49.956;8.636;2024-02-28T00:49:33;2.60;89.40
76099;DHT22;64828;49.956;8.636;2024-02-28T00:49:50;2.60;89.40
76099;DHT22;64828;49.956;8.636;2024-02-28T00:50:05;2.70;89.50
76099;DHT22;64828;49.956;8.636;2024-02-28T00:50:21;2.60;89.50
76099;DHT22;64828;49.956;8.636;2024-02-28T00:50:37;2.60;89.60
76099;DHT22;64828;49.956;8.636;2024-02-28T00:50:53;2.70;89.70
76099;DHT22;64828;49.956;8.636;2024-02-28T00:51:08;2.70;90.00
76099;DHT22;64828;49.956;8.636;2024-02-28T00:51:24;2.60;90.10
76099;DHT22;64828;49.956;8.636;2024-02-28T00:51:40;2.70;90.00
76099;DHT22;64828;49.956;8.636;2024-02-28T00:51:55;2.60;89.90
76099;DHT22;64828;49.956;8.636;2024-02-28T00:52:11;2.70;89.90
76099;DHT22;64828;49.956;8.636;2024-02-28T00:52:27;2.70;90.00
76099;DHT22;64828;49.956;8.636;2024-02-28T00:52:42;2.60;89.90
76099;DHT22;64828;49.956;8.636;2024-02-28T00:52:58;2.60;90.00
76099;DHT22;64828;49.956;8.636;2024-02-28T00:53:13;2.60;89.90
76099;DHT22;64828;49.956;8.636;2024-02-28T00:53:29;2.60;89.90
76099;DHT22;64828;49.956;8.636;2024-02-28T00:53:45;2.60;89.90
76099;DHT22;64828;49.956;8.636;2024-02-28T00:54:00;2.60;89.80
76099;DHT22;64828;49.956;8.636;2024-02-28T00:54:16;2.60;89.80
76099;DHT22;64828;49.956;8.636;2024-02-28T00:54:31;2.60;89.90
76099;DHT22;64828;49.956;8.636;2024-02-28T00:54:47;2.60;90.00
76099;DHT22;64828;49.956;8.636;2024-02-28T00:55:03;2.60;90.10
76099;DHT22;64828;49.956;8.636;2024-02-28T00:55:20;2.60;90.20
76099;DHT22;64828;49.956;8.636;2024-02-28T00:55:35;2.60;90.20
76099;DHT22;64828;49.956;8.636;2024-02-28T00:55:51;2.60;90.20
76099;DHT22;64828;49.956;8.636;2024-02-28T00:56:07;2.60;90.10
76099;DHT22;64828;49.956;8.636;2024-02-28T00:56:22;2.60;90.20
76099;DHT22;64828;49.956;8.636;2024-02-28T00:56:39;2.60;90.30
76099;DHT22;64828;49.956;8.636;2024-02-28T00:56:55;2.60;90.20
76099;DHT22;64828;49.956;8.636;2024-02-28T00:57:11;2.60;90.20
76099;DHT22;64828;49.956;8.636;2024-02-28T00:57:26;2.60;90.10
76099;DHT22;64828;49.956;8.636;2024-02-28T00:57:42;2.60;90.00
76099;DHT22;64828;49.956;8.636;2024-02-28T00:57:57;2.60;90.00
76099;DHT22;64828;49.956;8.636;2024-02-28T00:58:13;2.60;90.00
76099;DHT22;64828;49.956;8.636;2024-02-28T00:58:29;2.50;89.90
76099;DHT22;64828;49.956;8.636;2024-02-28T00:58:45;2.60;89.90
76099;DHT22;64828;49.956;8.636;2024-02-28T00:59:00;2.60;89.90
76099;DHT22;64828;49.956;8.636;2024-02-28T00:59:16;2.50;90.00
76099;DHT22;64828;49.956;8.636;2024-02-28T00:59:32;2.50;90.00
76099;DHT22;64828;49.956;8.636;2024-02-28T00:59:47;2.50;89.90
76099;DHT22;64828;49.956;8.636;2024-02-28T01:00:03;2.50;89.90
76099;DHT22;64828;49.956;8.636;2024-02-28T01:00:20;2.50;89.90
76099;DHT22;64828;49.956;8.636;2024-02-28T01:00:36;2.50;89.90
76099;DHT22;64828;49.956;8.636;2024-02-28T01:00:52;2.50;90.00
76099;DHT22;64828;49.956;8.636;2024-02-28T01:01:07;2.60;90.30
76099;DHT22;64828;49.956;8.636;2024-02-28T01:01:23;2.60;90.50
76099;DHT22;64828;49.956;8.636;2024-02-28T01:01:39;2.60;90.40
76099;DHT22;64828;49.956;8.636;2024-02-28T01:01:55;2.60;90.30
76099;DHT22;64828;49.956;8.636;2024-02-28T01:02:11;2.50;90.30
76099;DHT22;64828;49.956;8.636;2024-02-28T01:02:26;2.50;90.20
76099;DHT22;64828;49.956;8.636;2024-02-28T01:02:42;2.60;90.20
76099;DHT22;64828;49.956;8.636;2024-02-28T01:02:57;2.50;90.30
76099;DHT22;64828;49.956;8.636;2024-02-28T01:03:14;2.60;90.40
76099;DHT22;64828;49.956;8.636;2024-02-28T01:03:30;2.50;90.30
76099;DHT22;64828;49.956;8.636;2024-02-28T01:03:46;2.50;90.30
76099;DHT22;64828;49.956;8.636;2024-02-28T01:04:02;2.50;90.30
76099;DHT22;64828;49.956;8.636;2024-02-28T01:04:17;2.50;90.30
76099;DHT22;64828;49.956;8.636;2024-02-28T01:04:33;2.50;90.30
76099;DHT22;64828;49.956;8.636;2024-02-28T01:04:50;2.50;90.20
76099;DHT22;64828;49.956;8.636;2024-02-28T01:05:06;2.50;90.20
76099;DHT22;64828;49.956;8.636;2024-02-28T01:05:21;2.40;90.10
76099;DHT22;64828;49.956;8.636;2024-02-28T01:05:37;2.40;90.10
76099;DHT22;64828;49.956;8.636;2024-02-28T01:05:53;2.40;90.20
76099;DHT22;64828;49.956;8.636;2024-02-28T01:06:09;2.40;90.30
76099;DHT22;64828;49.956;8.636;2024-02-28T01:06:24;2.40;90.40
76099;DHT22;64828;49.956;8.636;2024-02-28T01:06:40;2.40;90.40
76099;DHT22;64828;49.956;8.636;2024-02-28T01:06:55;2.40;90.50
76099;DHT22;64828;49.956;8.636;2024-02-28T01:07:11;2.40;90.50
76099;DHT22;64828;49.956;8.636;2024-02-28T01:07:26;2.40;90.60
76099;DHT22;64828;49.956;8.636;2024-02-28T01:07:42;2.40;90.60
76099;DHT22;64828;49.956;8.636;2024-02-28T01:07:58;2.40;90.50
76099;DHT22;64828;49.956;8.636;2024-02-28T01:08:13;2.30;90.50
76099;DHT22;64828;49.956;8.636;2024-02-28T01:08:29;2.40;90.50
76099;DHT22;64828;49.956;8.636;2024-02-28T01:08:45;2.40;90.60
76099;DHT22;64828;49.956;8.636;2024-02-28T01:09:00;2.40;90.80
76099;DHT22;64828;49.956;8.636;2024-02-28T01:09:16;2.40;90.80
76099;DHT22;64828;49.956;8.636;2024-02-28T01:09:32;2.40;90.80
76099;DHT22;64828;49.956;8.636;2024-02-28T01:09:47;2.40;90.80
76099;DHT22;64828;49.956;8.636;2024-02-28T01:10:03;2.30;90.70
76099;DHT22;64828;49.956;8.636;2024-02-28T01:10:19;2.30;90.60
76099;DHT22;64828;49.956;8.636;2024-02-28T01:10:35;2.30;90.50
76099;DHT22;64828;49.956;8.636;2024-02-28T01:10:51;2.30;90.60
76099;DHT22;64828;49.956;8.636;2024-02-28T01:11:07;2.30;90.60
76099;DHT22;64828;49.956;8.636;2024-02-28T01:11:23;2.40;90.60
76099;DHT22;64828;49.956;8.636;2024-02-28T01:11:38;2.40;90.80
76099;DHT22;64828;49.956;8.636;2024-02-28T01:11:54;2.40;90.90
76099;DHT22;64828;49.956;8.636;2024-02-28T01:12:10;2.40;90.90
76099;DHT22;64828;49.956;8.636;2024-02-28T01:12:25;2.30;90.80
76099;DHT22;64828;49.956;8.636;2024-02-28T01:12:41;2.30;90.70
76099;DHT22;64828;49.956;8.636;2024-02-28T01:12:57;2.30;90.60
76099;DHT22;64828;49.956;8.636;2024-02-28T01:13:13;2.30;90.50
76099;DHT22;64828;49.956;8.636;2024-02-28T01:13:28;2.30;90.40
76099;DHT22;64828;49.956;8.636;2024-02-28T01:13:44;2.20;90.40
76099;DHT22;64828;49.956;8.636;2024-02-28T01:13:59;2.20;90.40
76099;DHT22;64828;49.956;8.636;2024-02-28T01:14:15;2.30;90.40
76099;DHT22;64828;49.956;8.636;2024-02-28T01:14:31;2.20;90.60
76099;DHT22;64828;49.956;8.636;2024-02-28T01:14:46;2.20;90.70
76099;DHT22;64828;49.956;8.636;2024-02-28T01:15:02;2.30;90.80
76099;DHT22;64828;49.956;8.636;2024-02-28T01:15:19;2.30;91.00
76099;DHT22;64828;49.956;8.636;2024-02-28T01:15:34;2.30;91.10
76099;DHT22;64828;49.956;8.636;2024-02-28T01:15:50;2.30;91.10
76099;DHT22;64828;49.956;8.636;2024-02-28T01:16:05;2.30;91.10
76099;DHT22;64828;49.956;8.636;2024-02-28T01:16:21;2.20;91.00
76099;DHT22;64828;49.956;8.636;2024-02-28T01:16:37;2.20;90.80
76099;DHT22;64828;49.956;8.636;2024-02-28T01:16:53;2.20;90.70
76099;DHT22;64828;49.956;8.636;2024-02-28T01:17:08;2.20;90.60
76099;DHT22;64828;49.956;8.636;2024-02-28T01:17:24;2.30;90.70
76099;DHT22;64828;49.956;8.636;2024-02-28T01:17:40;2.30;91.00
76099;DHT22;64828;49.956;8.636;2024-02-28T01:17:55;2.30;91.10
76099;DHT22;64828;49.956;8.636;2024-02-28T01:18:11;2.20;91.20
76099;DHT22;64828;49.956;8.636;2024-02-28T01:18:26;2.20;91.10
76099;DHT22;64828;49.956;8.636;2024-02-28T01:18:45;2.20;91.00
76099;DHT22;64828;49.956;8.636;2024-02-28T01:19:02;2.20;90.90
76099;DHT22;64828;49.956;8.636;2024-02-28T01:19:18;2.20;90.90
76099;DHT22;64828;49.956;8.636;2024-02-28T01:19:33;2.20;90.90
76099;DHT22;64828;49.956;8.636;2024-02-28T01:19:49;2.20;90.90
76099;DHT22;64828;49.956;8.636;2024-02-28T01:20:06;2.20;91.00
76099;DHT22;64828;49.956;8.636;2024-02-28T01:20:23;2.20;91.20
76099;DHT22;64828;49.956;8.636;2024-02-28T01:20:39;2.20;91.20
76099;DHT22;64828;49.956;8.636;2024-02-28T01:20:54;2.20;91.20
76099;DHT22;64828;49.956;8.636;2024-02-28T01:21:10;2.20;91.20
76099;DHT22;64828;49.956;8.636;2024-02-28T01:21:26;2.20;91.20
76099;DHT22;64828;49.956;8.636;2024-02-28T01:21:41;2.20;91.20
76099;DHT22;64828;49.956;8.636;2024-02-28T01:21:57;2.20;91.30
76099;DHT22;64828;49.956;8.636;2024-02-28T01:22:13;2.20;91.40
76099;DHT22;64828;49.956;8.636;2024-02-28T01:22:29;2.20;91.30
76099;DHT22;64828;49.956;8.636;2024-02-28T01:22:44;2.10;91.30
76099;DHT22;64828;49.956;8.636;2024-02-28T01:23:00;2.10;91.20
76099;DHT22;64828;49.956;8.636;2024-02-28T01:23:15;2.10;91.20
76099;DHT22;64828;49.956;8.636;2024-02-28T01:23:31;2.20;91.30
76099;DHT22;64828;49.956;8.636;2024-02-28T01:23:47;2.20;91.30
76099;DHT22;64828;49.956;8.636;2024-02-28T01:24:02;2.10;91.30
76099;DHT22;64828;49.956;8.636;2024-02-28T01:24:18;2.10;91.20
76099;DHT22;64828;49.956;8.636;2024-02-28T01:24:34;2.10;91.20
76099;DHT22;64828;49.956;8.636;2024-02-28T01:24:50;2.20;91.20
76099;DHT22;64828;49.956;8.636;2024-02-28T01:25:06;2.20;91.30
76099;DHT22;64828;49.956;8.636;2024-02-28T01:25:22;2.10;91.40
76099;DHT22;64828;49.956;8.636;2024-02-28T01:25:38;2.10;91.40
76099;DHT22;64828;49.956;8.636;2024-02-28T01:25:53;2.10;91.30
76099;DHT22;64828;49.956;8.636;2024-02-28T01:26:09;2.10;91.20
76099;DHT22;64828;49.956;8.636;2024-02-28T01:26:25;2.10;91.30
76099;DHT22;64828;49.956;8.636;2024-02-28T01:26:40;2.10;91.30
76099;DHT22;64828;49.956;8.636;2024-02-28T01:26:56;2.10;91.30
76099;DHT22;64828;49.956;8.636;2024-02-28T01:27:12;2.10;91.40
76099;DHT22;64828;49.956;8.636;2024-02-28T01:27:28;2.10;91.40
76099;DHT22;64828;49.956;8.636;2024-02-28T01:27:44;2.10;91.40
76099;DHT22;64828;49.956;8.636;2024-02-28T01:28:00;2.20;91.40
76099;DHT22;64828;49.956;8.636;2024-02-28T01:28:15;2.10;91.50
76099;DHT22;64828;49.956;8.636;2024-02-28T01:28:31;2.10;91.60
76099;DHT22;64828;49.956;8.636;2024-02-28T01:28:47;2.10;91.60
76099;DHT22;64828;49.956;8.636;2024-02-28T01:29:02;2.10;91.50
76099;DHT22;64828;49.956;8.636;2024-02-28T01:29:18;2.10;91.40
76099;DHT22;64828;49.956;8.636;2024-02-28T01:29:34;2.10;91.40
76099;DHT22;64828;49.956;8.636;2024-02-28T01:29:49;2.10;91.40
76099;DHT22;64828;49.956;8.636;2024-02-28T01:30:06;2.10;91.40
76099;DHT22;64828;49.956;8.636;2024-02-28T01:30:21;2.10;91.40
76099;DHT22;64828;49.956;8.636;2024-02-28T01:30:37;2.10;91.40
76099;DHT22;64828;49.956;8.636;2024-02-28T01:30:53;2.10;91.40
76099;DHT22;64828;49.956;8.636;2024-02-28T01:31:08;2.10;91.40
76099;DHT22;64828;49.956;8.636;2024-02-28T01:31:27;2.10;91.50
76099;DHT22;64828;49.956;8.636;2024-02-28T01:31:43;2.00;91.40
76099;DHT22;64828;49.956;8.636;2024-02-28T01:31:58;2.10;91.40
76099;DHT22;64828;49.956;8.636;2024-02-28T01:32:14;2.10;91.50
76099;DHT22;64828;49.956;8.636;2024-02-28T01:32:29;2.00;91.50
76099;DHT22;64828;49.956;8.636;2024-02-28T01:32:45;2.10;91.60
76099;DHT22;64828;49.956;8.636;2024-02-28T01:33:01;2.10;91.60
76099;DHT22;64828;49.956;8.636;2024-02-28T01:33:16;2.10;91.60
76099;DHT22;64828;49.956;8.636;2024-02-28T01:33:32;2.00;91.60
76099;DHT22;64828;49.956;8.636;2024-02-28T01:33:48;2.00;91.50
76099;DHT22;64828;49.956;8.636;2024-02-28T01:34:03;2.00;91.40
76099;DHT22;64828;49.956;8.636;2024-02-28T01:34:19;2.00;91.40
76099;DHT22;64828;49.956;8.636;2024-02-28T01:34:34;2.00;91.40
76099;DHT22;64828;49.956;8.636;2024-02-28T01:34:50;2.00;91.40
76099;DHT22;64828;49.956;8.636;2024-02-28T01:35:08;2.00;91.40
76099;DHT22;64828;49.956;8.636;2024-02-28T01:35:24;2.00;91.40
76099;DHT22;64828;49.956;8.636;2024-02-28T01:35:40;2.10;91.50
76099;DHT22;64828;49.956;8.636;2024-02-28T01:35:56;2.10;91.60
76099;DHT22;64828;49.956;8.636;2024-02-28T01:36:11;2.00;91.60
76099;DHT22;64828;49.956;8.636;2024-02-28T01:36:27;2.00;91.60
76099;DHT22;64828;49.956;8.636;2024-02-28T01:36:43;2.00;91.60
76099;DHT22;64828;49.956;8.636;2024-02-28T01:36:58;2.10;91.50
76099;DHT22;64828;49.956;8.636;2024-02-28T01:37:14;2.10;91.50
76099;DHT22;64828;49.956;8.636;2024-02-28T01:37:30;2.10;91.60
76099;DHT22;64828;49.956;8.636;2024-02-28T01:37:45;2.10;91.70
76099;DHT22;64828;49.956;8.636;2024-02-28T01:38:01;2.10;91.60
76099;DHT22;64828;49.956;8.636;2024-02-28T01:38:16;2.10;91.50
76099;DHT22;64828;49.956;8.636;2024-02-28T01:38:32;2.00;91.40
76099;DHT22;64828;49.956;8.636;2024-02-28T01:38:48;2.00;91.30
76099;DHT22;64828;49.956;8.636;2024-02-28T01:39:03;2.00;91.20
76099;DHT22;64828;49.956;8.636;2024-02-28T01:39:19;2.00;91.10
76099;DHT22;64828;49.956;8.636;2024-02-28T01:39:34;2.00;91.10
76099;DHT22;64828;49.956;8.636;2024-02-28T01:39:50;2.00;91.20
76099;DHT22;64828;49.956;8.636;2024-02-28T01:40:06;2.00;91.40
76099;DHT22;64828;49.956;8.636;2024-02-28T01:40:22;2.00;91.40
76099;DHT22;64828;49.956;8.636;2024-02-28T01:40:38;2.00;91.40
76099;DHT22;64828;49.956;8.636;2024-02-28T01:40:53;2.00;91.40
76099;DHT22;64828;49.956;8.636;2024-02-28T01:41:09;2.00;91.40
76099;DHT22;64828;49.956;8.636;2024-02-28T01:41:25;2.00;91.40
76099;DHT22;64828;49.956;8.636;2024-02-28T01:41:40;2.00;91.50